Time;durP1;ratioP1;P1;durP2;ratioP2;P2;SDS_P1;SDS_P2;PMS_P1;PMS_P2;Temp;Humidity;BMP_temperature;BMP_pressure;BME280_temperature;BME280_humidity;BME280_pressure;Samples;Min_cycle;Max_cycle;Signal;HPM_P1;HPM_P2
2023/06/13 00:03:53;;;;;;;5.50;3.90;;;;;;;11.38;58.13;98801.10;435213;1264;110412;-42
2023/06/13 00:14:00;;;;;;;11.70;7.30;;;;;;;11.49;58.57;98794.44;435440;1251;106044;-42
2023/06/13 00:24:05;;;;;;;9.20;5.60;;;;;;;11.27;58.75;98796.87;435476;1251;97847;-44
2023/06/13 00:34:13;;;;;;;8.90;4.70;;;;;;;11.06;59.06;98789.98;435349;1251;107625;-44
2023/06/13 00:44:21;;;;;;;15.40;4.60;;;;;;;10.81;59.30;98785.56;435285;1256;97912;-43
2023/06/13 00:54:29;;;;;;;11.10;4.70;;;;;;;10.65;59.84;98783.98;435375;1260;110753;-42
2023/06/13 01:04:37;;;;;;;7.60;5.50;;;;;;;10.62;60.32;98773.30;436156;1251;108004;-41
2023/06/13 01:14:52;;;;;;;6.70;5.70;;;;;;;10.47;60.76;98762.83;435352;1250;97936;-42
2023/06/13 01:24:59;;;;;;;7.90;5.20;;;;;;;10.36;61.09;98751.96;435465;1254;110441;-42
2023/06/13 01:35:06;;;;;;;10.00;5.60;;;;;;;10.13;61.35;98748.81;435314;1255;107142;-41
2023/06/13 01:45:11;;;;;;;7.30;5.00;;;;;;;10.10;61.72;98744.58;435351;1257;97885;-41
2023/06/13 01:55:21;;;;;;;8.10;5.90;;;;;;;9.88;61.88;98742.55;435367;1254;107622;-42
2023/06/13 02:05:28;;;;;;;6.50;5.50;;;;;;;9.46;62.34;98739.72;435284;1250;97476;-43
2023/06/13 02:15:35;;;;;;;8.30;5.90;;;;;;;9.11;62.77;98731.70;435481;1251;109473;-42
2023/06/13 02:25:42;;;;;;;9.40;5.90;;;;;;;8.88;63.20;98721.81;435253;1264;108390;-42
2023/06/13 02:35:49;;;;;;;7.40;6.00;;;;;;;8.79;63.49;98704.52;435348;1260;97885;-42
2023/06/13 02:45:56;;;;;;;10.70;6.40;;;;;;;8.82;64.03;98691.84;435344;1251;110482;-42
2023/06/13 02:56:04;;;;;;;11.30;6.90;;;;;;;8.82;64.12;98687.58;435516;1256;107215;-42
2023/06/13 03:06:11;;;;;;;9.10;6.30;;;;;;;8.76;64.44;98669.30;435329;1261;97996;-42
2023/06/13 03:16:18;;;;;;;12.30;6.00;;;;;;;9.55;64.41;98661.30;435147;1256;110948;-41
2023/06/13 03:26:25;;;;;;;13.20;6.20;;;;;;;11.72;63.54;98652.30;434961;1264;447435;-42
2023/06/13 03:36:33;;;;;;;14.80;7.50;;;;;;;13.65;62.12;98649.95;435371;1264;117783;-42
2023/06/13 03:46:40;;;;;;;26.40;9.60;;;;;;;15.10;60.15;98646.44;435480;1257;107942;-44
2023/06/13 03:56:48;;;;;;;16.30;8.10;;;;;;;16.38;58.73;98648.52;435413;1251;96617;-43
2023/06/13 04:06:55;;;;;;;15.40;8.40;;;;;;;17.69;57.06;98644.59;435311;1257;110022;-43
2023/06/13 04:17:01;;;;;;;;;;;;;;;18.58;55.86;98663.73;435308;1264;106860;-43
2023/06/13 04:27:13;;;;;;;15.20;7.90;;;;;;;19.52;54.54;98677.88;435439;1264;97868;-44
2023/06/13 04:47:26;;;;;;;15.70;4.60;;;;;;;18.69;52.82;98672.26;435452;1251;106552;-44
2023/06/13 04:57:48;;;;;;;7.50;4.30;;;;;;;17.28;52.72;98681.79;435371;1257;97861;-44
2023/06/13 05:07:59;;;;;;;10.90;4.80;;;;;;;16.82;52.56;98683.85;435314;1251;110482;-43
2023/06/13 05:28:11;;;;;;;7.90;4.50;;;;;;;16.02;52.87;98695.71;435281;1251;97964;-43
2023/06/13 05:38:19;;;;;;;4.50;3.60;;;;;;;15.72;53.44;98692.69;435404;1251;112178;-41
2023/06/13 05:48:28;;;;;;;7.30;3.10;;;;;;;15.37;53.91;98694.17;435360;1251;108220;-40
2023/06/13 05:58:36;;;;;;;10.10;3.30;;;;;;;15.51;54.06;98699.19;435443;1257;97088;-43
2023/06/13 06:08:43;;;;;;;5.90;2.70;;;;;;;15.52;54.18;98702.61;435365;1250;110262;-43
2023/06/13 06:18:51;;;;;;;7.10;2.90;;;;;;;15.93;53.93;98693.56;435254;1254;108355;-43
2023/06/13 06:28:56;;;;;;;7.00;3.40;;;;;;;15.66;53.98;98695.29;435303;1251;97219;-43
2023/06/13 06:39:03;;;;;;;7.90;3.40;;;;;;;16.22;54.21;98691.42;435396;1251;110746;-43
2023/06/13 06:49:10;;;;;;;7.20;3.30;;;;;;;16.31;53.96;98688.89;435315;1251;108021;-42
2023/06/13 06:59:17;;;;;;;5.40;3.20;;;;;;;16.73;53.89;98676.58;435282;1254;97234;-42
2023/06/13 07:09:24;;;;;;;3.10;2.80;;;;;;;16.93;52.54;98666.80;435329;1254;110808;-42
2023/06/13 07:19:31;;;;;;;5.60;2.80;;;;;;;16.73;52.66;98666.81;435343;1251;108468;-42
2023/06/13 07:29:38;;;;;;;4.20;3.30;;;;;;;16.67;52.54;98655.02;435348;1264;97932;-42
2023/06/13 07:39:46;;;;;;;6.00;3.00;;;;;;;16.89;52.61;98644.43;435443;1251;109869;-43
2023/06/13 07:49:52;;;;;;;1.90;1.80;;;;;;;17.31;51.90;98635.33;435322;1254;108398;-44
2023/06/13 07:59:59;;;;;;;4.00;2.60;;;;;;;17.37;51.38;98631.20;435305;1251;97893;-42
2023/06/13 08:10:06;;;;;;;5.40;2.70;;;;;;;18.13;51.00;98624.66;435362;1250;111088;-43
2023/06/13 08:20:14;;;;;;;3.70;2.30;;;;;;;17.94;50.23;98620.02;435321;1251;108631;-43
2023/06/13 08:30:22;;;;;;;9.20;3.20;;;;;;;17.36;50.63;98624.67;435558;1254;97864;-41
2023/06/13 08:40:30;;;;;;;3.50;1.70;;;;;;;18.08;50.38;98618.79;435284;1254;110757;-42
2023/06/13 08:50:37;;;;;;;5.70;2.50;;;;;;;18.68;49.77;98610.77;435228;1255;108494;-42
2023/06/13 09:00:47;;;;;;;3.30;2.20;;;;;;;18.34;49.06;98615.70;435324;1250;97864;-42
2023/06/13 09:10:57;;;;;;;3.70;2.30;;;;;;;18.31;49.01;98619.00;435423;1254;109439;-43
2023/06/13 09:21:05;;;;;;;6.40;2.50;;;;;;;18.67;48.86;98618.42;435378;1251;106839;-49
2023/06/13 09:31:13;;;;;;;2.90;2.40;;;;;;;18.61;48.19;98614.27;435399;1254;97970;-44
2023/06/13 09:51:28;;;;;;;5.20;2.40;;;;;;;18.78;47.78;98601.84;435510;1250;97864;-42
2023/06/13 10:01:36;;;;;;;2.50;2.20;;;;;;;18.83;47.08;98593.87;435461;1255;97871;-42
2023/06/13 10:21:56;;;;;;;5.50;2.70;;;;;;;19.02;47.09;98580.73;435380;1250;109392;-45
2023/06/13 10:32:10;;;;;;;6.20;2.50;;;;;;;18.62;46.73;98575.80;435416;1255;97887;-43
2023/06/13 10:42:20;;;;;;;2.60;2.40;;;;;;;18.43;46.93;98568.46;435528;1250;107724;-43
2023/06/13 10:52:29;;;;;;;2.80;2.00;;;;;;;17.96;46.89;98565.16;435298;1254;97908;-42
2023/06/13 11:02:38;;;;;;;5.30;2.90;;;;;;;17.88;47.31;98557.95;435303;1251;109597;-42
2023/06/13 11:12:46;;;;;;;3.40;3.00;;;;;;;18.02;47.58;98556.53;435408;1251;108711;-42
2023/06/13 11:22:53;;;;;;;3.80;2.40;;;;;;;18.29;46.73;98547.55;435422;1254;97924;-44
2023/06/13 11:33:00;;;;;;;6.10;3.20;;;;;;;18.27;47.23;98548.48;435344;1254;110884;-43
2023/06/13 11:43:08;;;;;;;18.70;9.20;;;;;;;18.47;46.82;98543.15;435371;1254;107132;-43
2023/06/13 11:53:15;;;;;;;9.00;3.30;;;;;;;18.82;46.50;98540.46;435386;1251;96652;-42
2023/06/13 12:03:21;;;;;;;4.60;3.10;;;;;;;18.35;46.51;98536.25;435321;1250;107500;-42
2023/06/13 12:13:28;;;;;;;5.50;3.00;;;;;;;18.05;46.75;98537.17;435531;1250;97170;-42
2023/06/13 12:23:37;;;;;;;6.50;3.90;;;;;;;18.47;46.88;98531.36;435399;1254;108968;-43
2023/06/13 12:33:45;;;;;;;5.90;3.00;;;;;;;19.17;46.56;98524.16;435419;1251;107839;-44
2023/06/13 12:43:52;;;;;;;13.60;3.90;;;;;;;19.05;45.29;98520.52;435499;1251;97919;-41
2023/06/13 13:04:15;;;;;;;6.80;3.00;;;;;;;18.40;45.82;98519.45;435362;1254;108292;-43
2023/06/13 13:14:22;;;;;;;3.10;2.30;;;;;;;18.21;46.63;98518.40;435205;1254;97929;-43
2023/06/13 13:24:28;;;;;;;4.10;2.60;;;;;;;18.30;46.51;98508.41;435407;1250;109661;-43
2023/06/13 13:34:40;;;;;;;5.60;2.30;;;;;;;18.36;46.27;98498.12;435422;1250;107764;-43
2023/06/13 13:54:54;;;;;;;4.30;2.80;;;;;;;18.77;46.38;98493.91;435413;1251;109208;-43
2023/06/13 14:05:03;;;;;;;3.50;2.70;;;;;;;18.82;46.25;98492.41;435358;1251;108007;-43
2023/06/13 14:15:11;;;;;;;4.60;2.00;;;;;;;18.82;46.15;98490.59;435362;1253;96626;-44
2023/06/13 14:25:18;;;;;;;2.00;1.80;;;;;;;18.38;46.70;98497.05;435526;1251;109881;-42
2023/06/13 14:35:25;;;;;;;2.90;2.60;;;;;;;18.62;46.52;98496.90;435310;1251;107814;-42
2023/06/13 14:45:31;;;;;;;4.80;1.90;;;;;;;18.17;46.09;98500.19;435464;1250;97483;-42
2023/06/13 14:55:38;;;;;;;5.40;2.50;;;;;;;17.74;46.36;98507.91;435257;1251;111030;-43
2023/06/13 15:05:45;;;;;;;5.50;1.60;;;;;;;17.47;46.92;98506.96;435222;1250;108484;-43
2023/06/13 15:25:58;;;;;;;2.30;1.70;;;;;;;17.76;46.54;98512.13;435197;1251;403602;-43
2023/06/13 15:36:06;;;;;;;2.20;2.00;;;;;;;17.45;46.49;98510.35;435313;1250;108334;-43
2023/06/13 15:46:13;;;;;;;1.80;1.70;;;;;;;17.20;47.34;98509.20;435472;1254;97881;-43
2023/06/13 15:56:20;;;;;;;2.30;1.90;;;;;;;17.21;47.16;98506.58;435437;1254;108595;-43
2023/06/13 16:16:35;;;;;;;1.70;1.60;;;;;;;17.06;47.38;98524.92;435353;1256;110534;-42
2023/06/13 16:36:47;;;;;;;2.20;1.70;;;;;;;16.69;48.41;98539.38;435381;1251;97892;-42
2023/06/13 16:46:52;;;;;;;3.70;1.80;;;;;;;16.70;48.20;98545.66;435419;1256;113046;-42
2023/06/13 16:57:00;;;;;;;2.70;1.50;;;;;;;16.68;48.49;98541.19;435488;1251;107947;-42
2023/06/13 17:07:08;;;;;;;2.50;1.80;;;;;;;16.47;48.85;98555.14;435449;1250;118295;-45
2023/06/13 17:17:16;;;;;;;4.10;1.30;;;;;;;16.21;49.45;98554.31;435472;1250;108524;-44
2023/06/13 17:27:21;;;;;;;3.00;1.00;;;;;;;15.87;50.32;98545.62;435427;1250;97873;-43
2023/06/13 17:37:28;;;;;;;2.70;1.20;;;;;;;15.52;50.75;98544.64;435461;1250;109820;-42
2023/06/13 17:57:42;;;;;;;3.40;2.40;;;;;;;15.02;52.47;98540.00;435343;1256;97871;-42
2023/06/13 18:07:49;;;;;;;3.50;2.40;;;;;;;14.74;53.70;98544.45;435377;1250;109645;-43
2023/06/13 18:17:56;;;;;;;5.70;2.70;;;;;;;14.46;54.47;98543.75;435316;1256;107605;-42
2023/06/13 18:28:05;;;;;;;6.70;3.00;;;;;;;14.28;54.81;98550.95;435332;1250;97896;-42
2023/06/13 18:38:13;;;;;;;5.80;3.10;;;;;;;14.07;55.29;98547.77;435427;1250;110909;-42
2023/06/13 18:48:20;;;;;;;4.40;2.90;;;;;;;13.94;55.73;98551.85;435212;1256;108499;-43
2023/06/13 18:58:27;;;;;;;6.30;3.20;;;;;;;13.77;56.70;98557.27;435364;1256;97358;-42
2023/06/13 19:08:34;;;;;;;5.90;3.50;;;;;;;13.58;57.11;98568.73;435332;1250;110411;-42
2023/06/13 19:18:42;;;;;;;5.40;3.50;;;;;;;13.40;57.37;98576.77;435353;1250;108213;-42
2023/06/13 19:28:50;;;;;;;10.40;5.10;;;;;;;13.26;57.77;98581.46;435254;1250;97857;-42
2023/06/13 19:49:05;;;;;;;9.10;6.10;;;;;;;12.87;59.35;98589.01;435411;1256;106954;-42
2023/06/13 19:59:13;;;;;;;14.50;6.40;;;;;;;12.74;59.91;98593.70;435463;1254;97874;-43
2023/06/13 20:09:21;;;;;;;8.80;4.80;;;;;;;12.70;60.18;98599.38;435253;1264;111107;-43
2023/06/13 20:19:28;;;;;;;6.90;4.20;;;;;;;12.58;60.64;98607.98;435383;1254;108384;-43
2023/06/13 20:29:37;;;;;;;8.10;5.20;;;;;;;12.52;61.29;98600.29;435258;1256;97856;-42
2023/06/13 20:49:55;;;;;;;7.40;5.30;;;;;;;12.14;62.13;98610.15;435442;1256;106877;-42
2023/06/13 21:10:12;;;;;;;7.00;5.10;;;;;;;12.10;63.11;98616.00;435287;1250;110783;-43
2023/06/13 21:20:23;;;;;;;8.10;4.80;;;;;;;11.84;63.43;98616.57;435342;1250;107871;-43
2023/06/13 21:30:30;;;;;;;8.30;5.70;;;;;;;11.64;63.74;98623.48;435490;1250;96623;-42
2023/06/13 21:40:38;;;;;;;7.00;4.80;;;;;;;11.43;64.14;98621.16;435287;1255;109474;-42
2023/06/13 21:50:45;;;;;;;7.30;5.30;;;;;;;11.22;64.71;98616.72;435407;1250;97895;-42
2023/06/13 22:00:52;;;;;;;9.20;5.70;;;;;;;10.99;64.93;98617.19;435301;1254;109957;-43
2023/06/13 22:11:00;;;;;;;8.80;6.10;;;;;;;10.75;65.57;98621.91;435492;1251;107790;-42
2023/06/13 22:21:10;;;;;;;9.00;5.80;;;;;;;10.82;66.19;98622.22;435421;1256;97873;-43
2023/06/13 22:31:17;;;;;;;10.70;6.40;;;;;;;11.05;66.71;98616.38;435444;1263;108151;-42
2023/06/13 22:41:24;;;;;;;9.50;5.80;;;;;;;11.20;67.16;98610.45;435529;1253;117791;-43
2023/06/13 22:51:33;;;;;;;15.30;5.80;;;;;;;11.26;67.34;98597.85;435499;1251;111053;-44
2023/06/13 23:01:40;;;;;;;9.30;5.90;;;;;;;11.23;67.40;98593.52;435297;1253;107362;-43
2023/06/13 23:21:53;;;;;;;14.80;8.80;;;;;;;11.29;68.03;98597.02;435435;1253;107959;-42
2023/06/13 23:32:01;;;;;;;12.30;8.00;;;;;;;11.46;68.44;98594.15;435457;1251;97877;-43
2023/06/13 23:42:08;;;;;;;12.80;8.30;;;;;;;11.43;68.57;98591.77;435448;1253;109786;-44
2023/06/13 23:52:15;;;;;;;17.90;9.40;;;;;;;11.47;68.72;98585.54;435459;1253;106795;-43
